sensor_id;sensor_type;location;lat;lon;timestamp;pressure;altitude;pressure_sealevel;temperature;humidity
7018;BME280;3549;42.162;24.726;2023-06-05T00:00:28;47622.88;;;-141.97;80.95
7018;BME280;3549;42.162;24.726;2023-06-05T00:02:53;47609.41;;;-141.97;81.12
7018;BME280;3549;42.162;24.726;2023-06-05T00:05:19;47628.63;;;-141.97;81.50
7018;BME280;3549;42.162;24.726;2023-06-05T00:07:44;47655.53;;;-141.97;81.90
7018;BME280;3549;42.162;24.726;2023-06-05T00:10:10;47574.81;;;-141.97;82.06
7018;BME280;3549;42.162;24.726;2023-06-05T00:12:36;47649.78;;;-141.97;81.81
7018;BME280;3549;42.162;24.726;2023-06-05T00:15:02;47676.69;;;-141.97;82.55
7018;BME280;3549;42.162;24.726;2023-06-05T00:17:28;47742.03;;;-141.97;82.83
7018;BME280;3549;42.162;24.726;2023-06-05T00:19:55;47570.97;;;-141.97;83.39
7018;BME280;3549;42.162;24.726;2023-06-05T00:22:23;47657.47;;;-141.97;82.93
7018;BME280;3549;42.162;24.726;2023-06-05T00:24:49;47557.53;;;-141.97;82.79
7018;BME280;3549;42.162;24.726;2023-06-05T00:27:14;47738.19;;;-141.97;82.86
7018;BME280;3549;42.162;24.726;2023-06-05T00:29:39;47630.56;;;-141.97;82.93
7018;BME280;3549;42.162;24.726;2023-06-05T00:32:05;47665.16;;;-141.97;82.82
7018;BME280;3549;42.162;24.726;2023-06-05T00:34:30;47626.72;;;-141.97;82.91
7018;BME280;3549;42.162;24.726;2023-06-05T00:36:56;47649.78;;;-141.97;82.47
7018;BME280;3549;42.162;24.726;2023-06-05T00:39:23;47686.31;;;-141.97;81.34
7018;BME280;3549;42.162;24.726;2023-06-05T00:41:48;47694.00;;;-141.97;80.86
7018;BME280;3549;42.162;24.726;2023-06-05T00:44:14;47634.41;;;-141.97;81.24
7018;BME280;3549;42.162;24.726;2023-06-05T00:46:40;47642.09;;;-141.97;81.50
7018;BME280;3549;42.162;24.726;2023-06-05T00:49:07;47630.56;;;-141.97;81.39
7018;BME280;3549;42.162;24.726;2023-06-05T00:51:33;47665.16;;;-141.97;80.49
7018;BME280;3549;42.162;24.726;2023-06-05T00:53:59;47651.69;;;-141.97;80.39
7018;BME280;3549;42.162;24.726;2023-06-05T00:56:25;47695.91;;;-141.97;80.39
7018;BME280;3549;42.162;24.726;2023-06-05T00:58:52;47661.31;;;-141.97;80.18
7018;BME280;3549;42.162;24.726;2023-06-05T01:01:18;47682.47;;;-141.97;79.84
7018;BME280;3549;42.162;24.726;2023-06-05T01:03:46;47669.00;;;-141.97;79.49
7018;BME280;3549;42.162;24.726;2023-06-05T01:06:13;47615.19;;;-141.97;78.88
7018;BME280;3549;42.162;24.726;2023-06-05T01:08:41;47599.81;;;-141.97;79.69
7018;BME280;3549;42.162;24.726;2023-06-05T01:11:18;47665.16;;;-141.97;79.18
7018;BME280;3549;42.162;24.726;2023-06-05T01:13:50;47665.16;;;-141.97;78.13
7018;BME280;3549;42.162;24.726;2023-06-05T01:16:19;47617.09;;;-141.97;78.02
7018;BME280;3549;42.162;24.726;2023-06-05T01:18:49;47630.56;;;-141.97;78.16
7018;BME280;3549;42.162;24.726;2023-06-05T01:21:14;47592.13;;;-141.97;77.86
7018;BME280;3549;42.162;24.726;2023-06-05T01:23:41;47640.16;;;-141.97;77.53
7018;BME280;3549;42.162;24.726;2023-06-05T01:26:19;47636.31;;;-141.97;77.35
7018;BME280;3549;42.162;24.726;2023-06-05T01:28:47;47661.31;;;-141.97;77.38
7018;BME280;3549;42.162;24.726;2023-06-05T01:31:17;47642.09;;;-141.97;77.52
7018;BME280;3549;42.162;24.726;2023-06-05T01:33:53;47645.94;;;-141.97;77.08
7018;BME280;3549;42.162;24.726;2023-06-05T01:36:22;47640.16;;;-141.97;77.35
7018;BME280;3549;42.162;24.726;2023-06-05T01:38:49;47651.69;;;-141.97;77.21
7018;BME280;3549;42.162;24.726;2023-06-05T01:41:17;47642.09;;;-141.97;77.28
7018;BME280;3549;42.162;24.726;2023-06-05T01:43:45;47603.66;;;-141.97;77.08
7018;BME280;3549;42.162;24.726;2023-06-05T01:46:12;47624.78;;;-141.97;76.80
7018;BME280;3549;42.162;24.726;2023-06-05T01:48:39;47580.59;;;-141.97;76.56
7018;BME280;3549;42.162;24.726;2023-06-05T01:51:08;47688.22;;;-141.97;76.41
7018;BME280;3549;42.162;24.726;2023-06-05T01:53:33;47620.94;;;-141.97;76.62
7018;BME280;3549;42.162;24.726;2023-06-05T01:55:58;47665.16;;;-141.97;76.45
7018;BME280;3549;42.162;24.726;2023-06-05T01:58:25;47611.34;;;-141.97;76.85
7018;BME280;3549;42.162;24.726;2023-06-05T02:00:51;47665.16;;;-141.97;77.49
7018;BME280;3549;42.162;24.726;2023-06-05T02:03:22;47607.50;;;-141.97;79.14
7018;BME280;3549;42.162;24.726;2023-06-05T02:05:48;47603.66;;;-141.97;80.79
7018;BME280;3549;42.162;24.726;2023-06-05T02:08:13;47620.94;;;-141.97;81.66
7018;BME280;3549;42.162;24.726;2023-06-05T02:10:47;47619.03;;;-141.97;81.77
7018;BME280;3549;42.162;24.726;2023-06-05T02:13:13;47580.59;;;-141.97;81.11
7018;BME280;3549;42.162;24.726;2023-06-05T02:15:40;47624.78;;;-141.97;80.56
7018;BME280;3549;42.162;24.726;2023-06-05T02:18:06;47611.34;;;-141.97;80.50
7018;BME280;3549;42.162;24.726;2023-06-05T02:20:34;47776.63;;;-141.97;81.04
7018;BME280;3549;42.162;24.726;2023-06-05T02:23:00;47592.13;;;-141.97;81.06
7018;BME280;3549;42.162;24.726;2023-06-05T02:25:25;47784.34;;;-141.97;80.57
7018;BME280;3549;42.162;24.726;2023-06-05T02:27:52;47757.41;;;-141.97;80.55
7018;BME280;3549;42.162;24.726;2023-06-05T02:30:18;47553.69;;;-141.97;80.66
7018;BME280;3549;42.162;24.726;2023-06-05T02:32:43;47603.66;;;-141.97;80.16
7018;BME280;3549;42.162;24.726;2023-06-05T02:35:10;47684.38;;;-141.97;80.14
7018;BME280;3549;42.162;24.726;2023-06-05T02:37:36;47669.00;;;-141.97;80.82
7018;BME280;3549;42.162;24.726;2023-06-05T02:40:09;47669.00;;;-141.97;80.57
7018;BME280;3549;42.162;24.726;2023-06-05T02:42:36;47588.28;;;-141.97;80.94
7018;BME280;3549;42.162;24.726;2023-06-05T02:45:02;47674.78;;;-141.97;80.30
7018;BME280;3549;42.162;24.726;2023-06-05T02:47:29;47638.25;;;-141.97;79.50
7018;BME280;3549;42.162;24.726;2023-06-05T02:49:55;47597.88;;;-141.97;78.21
7018;BME280;3549;42.162;24.726;2023-06-05T02:52:20;47661.31;;;-141.97;78.22
7018;BME280;3549;42.162;24.726;2023-06-05T02:54:46;47642.09;;;-141.97;77.76
7018;BME280;3549;42.162;24.726;2023-06-05T02:57:12;47678.63;;;-141.97;77.92
7018;BME280;3549;42.162;24.726;2023-06-05T02:59:37;47820.84;;;-141.97;77.78
7018;BME280;3549;42.162;24.726;2023-06-05T03:02:07;47667.06;;;-141.97;77.54
7018;BME280;3549;42.162;24.726;2023-06-05T03:04:33;47567.13;;;-141.97;77.55
7018;BME280;3549;42.162;24.726;2023-06-05T03:06:59;47692.06;;;-141.97;77.49
7018;BME280;3549;42.162;24.726;2023-06-05T03:09:28;47584.44;;;-141.97;77.34
7018;BME280;3549;42.162;24.726;2023-06-05T03:11:53;47657.47;;;-141.97;77.21
7018;BME280;3549;42.162;24.726;2023-06-05T03:14:19;47680.53;;;-141.97;77.44
7018;BME280;3549;42.162;24.726;2023-06-05T03:16:44;47572.91;;;-141.97;77.53
7018;BME280;3549;42.162;24.726;2023-06-05T03:19:11;47630.56;;;-141.97;76.63
7018;BME280;3549;42.162;24.726;2023-06-05T03:21:38;47672.84;;;-141.97;76.45
7018;BME280;3549;42.162;24.726;2023-06-05T03:24:09;47640.16;;;-141.97;76.49
7018;BME280;3549;42.162;24.726;2023-06-05T03:26:36;47711.28;;;-141.97;75.79
7018;BME280;3549;42.162;24.726;2023-06-05T03:29:02;47680.53;;;-141.97;76.48
7018;BME280;3549;42.162;24.726;2023-06-05T03:31:27;47632.47;;;-141.97;75.71
7018;BME280;3549;42.162;24.726;2023-06-05T03:33:53;47661.31;;;-141.97;75.21
7018;BME280;3549;42.162;24.726;2023-06-05T03:36:18;47622.88;;;-141.97;75.07
7018;BME280;3549;42.162;24.726;2023-06-05T03:38:44;47634.41;;;-141.97;74.20
7018;BME280;3549;42.162;24.726;2023-06-05T03:41:10;47651.69;;;-141.97;73.23
7018;BME280;3549;42.162;24.726;2023-06-05T03:43:35;47630.56;;;-141.97;72.78
7018;BME280;3549;42.162;24.726;2023-06-05T03:46:01;47665.16;;;-141.97;72.68
7018;BME280;3549;42.162;24.726;2023-06-05T03:48:27;47695.91;;;-141.97;72.05
7018;BME280;3549;42.162;24.726;2023-06-05T03:50:52;47619.03;;;-141.97;71.86
7018;BME280;3549;42.162;24.726;2023-06-05T03:53:19;47703.59;;;-141.97;71.60
7018;BME280;3549;42.162;24.726;2023-06-05T03:55:44;47674.78;;;-141.97;70.57
7018;BME280;3549;42.162;24.726;2023-06-05T03:58:15;47672.84;;;-141.97;70.72
7018;BME280;3549;42.162;24.726;2023-06-05T04:03:08;47649.78;;;-141.97;69.89
7018;BME280;3549;42.162;24.726;2023-06-05T04:05:36;47632.47;;;-141.97;69.46
7018;BME280;3549;42.162;24.726;2023-06-05T04:08:02;47676.69;;;-141.97;69.32
7018;BME280;3549;42.162;24.726;2023-06-05T04:10:28;47640.16;;;-141.97;69.34
7018;BME280;3549;42.162;24.726;2023-06-05T04:12:54;47676.69;;;-141.97;68.94
7018;BME280;3549;42.162;24.726;2023-06-05T04:15:20;47672.84;;;-141.97;68.19
7018;BME280;3549;42.162;24.726;2023-06-05T04:17:46;47661.31;;;-141.97;67.40
7018;BME280;3549;42.162;24.726;2023-06-05T04:20:11;47663.22;;;-141.97;67.04
7018;BME280;3549;42.162;24.726;2023-06-05T04:22:40;47570.97;;;-141.97;66.74
7018;BME280;3549;42.162;24.726;2023-06-05T04:25:06;47636.31;;;-141.97;66.94
7018;BME280;3549;42.162;24.726;2023-06-05T04:27:31;47622.88;;;-141.97;66.53
7018;BME280;3549;42.162;24.726;2023-06-05T04:29:57;47584.44;;;-141.97;65.90
7018;BME280;3549;42.162;24.726;2023-06-05T04:32:22;47638.25;;;-141.97;64.79
7018;BME280;3549;42.162;24.726;2023-06-05T04:34:47;47670.91;;;-141.97;64.09
7018;BME280;3549;42.162;24.726;2023-06-05T04:37:13;47570.97;;;-141.97;62.63
7018;BME280;3549;42.162;24.726;2023-06-05T04:39:38;47565.22;;;-141.97;62.40
7018;BME280;3549;42.162;24.726;2023-06-05T04:42:04;47620.94;;;-141.97;62.42
7018;BME280;3549;42.162;24.726;2023-06-05T04:44:30;47653.63;;;-141.97;63.16
7018;BME280;3549;42.162;24.726;2023-06-05T04:46:56;47799.72;;;-141.97;62.91
7018;BME280;3549;42.162;24.726;2023-06-05T04:49:22;47626.72;;;-141.97;62.67
7018;BME280;3549;42.162;24.726;2023-06-05T04:51:51;47645.94;;;-141.97;62.24
7018;BME280;3549;42.162;24.726;2023-06-05T04:54:18;47542.16;;;-141.97;62.29
7018;BME280;3549;42.162;24.726;2023-06-05T04:56:44;47582.50;;;-141.97;61.39
7018;BME280;3549;42.162;24.726;2023-06-05T04:59:11;47657.47;;;-141.97;60.74
7018;BME280;3549;42.162;24.726;2023-06-05T05:01:36;47657.47;;;-141.97;61.15
7018;BME280;3549;42.162;24.726;2023-06-05T05:04:02;47570.97;;;-141.97;61.39
7018;BME280;3549;42.162;24.726;2023-06-05T05:06:28;47634.41;;;-141.97;61.04
7018;BME280;3549;42.162;24.726;2023-06-05T05:08:53;47640.16;;;-141.97;60.09
7018;BME280;3549;42.162;24.726;2023-06-05T05:11:19;47645.94;;;-141.97;59.82
7018;BME280;3549;42.162;24.726;2023-06-05T05:13:45;47619.03;;;-141.97;59.59
7018;BME280;3549;42.162;24.726;2023-06-05T05:16:10;47788.19;;;-141.97;59.10
7018;BME280;3549;42.162;24.726;2023-06-05T05:18:38;47634.41;;;-141.97;59.53
7018;BME280;3549;42.162;24.726;2023-06-05T05:21:05;47642.09;;;-141.97;59.95
7018;BME280;3549;42.162;24.726;2023-06-05T05:23:32;47607.50;;;-141.97;60.18
7018;BME280;3549;42.162;24.726;2023-06-05T05:25:57;47619.03;;;-141.97;60.05
7018;BME280;3549;42.162;24.726;2023-06-05T05:28:23;47642.09;;;-141.97;59.86
7018;BME280;3549;42.162;24.726;2023-06-05T05:30:48;47626.72;;;-141.97;59.79
7018;BME280;3549;42.162;24.726;2023-06-05T05:33:13;47609.41;;;-141.97;59.46
7018;BME280;3549;42.162;24.726;2023-06-05T05:35:40;47595.97;;;-141.97;59.71
7018;BME280;3549;42.162;24.726;2023-06-05T05:38:05;47582.50;;;-141.97;59.75
7018;BME280;3549;42.162;24.726;2023-06-05T05:40:31;47565.22;;;-141.97;59.77
7018;BME280;3549;42.162;24.726;2023-06-05T05:42:56;47574.81;;;-141.97;59.86
7018;BME280;3549;42.162;24.726;2023-06-05T05:45:22;47546.00;;;-141.97;60.09
7018;BME280;3549;42.162;24.726;2023-06-05T05:47:47;47619.03;;;-141.97;59.66
7018;BME280;3549;42.162;24.726;2023-06-05T05:50:13;47638.25;;;-141.97;59.29
7018;BME280;3549;42.162;24.726;2023-06-05T05:52:38;47801.63;;;-141.97;58.63
7018;BME280;3549;42.162;24.726;2023-06-05T05:55:04;47553.69;;;-141.97;58.58
7018;BME280;3549;42.162;24.726;2023-06-05T05:57:30;47530.59;;;-141.97;57.83
7018;BME280;3549;42.162;24.726;2023-06-05T05:59:55;47536.38;;;-141.97;58.36
7018;BME280;3549;42.162;24.726;2023-06-05T06:02:21;47638.25;;;-141.97;58.52
7018;BME280;3549;42.162;24.726;2023-06-05T06:04:47;47572.91;;;-141.97;58.33
7018;BME280;3549;42.162;24.726;2023-06-05T06:07:13;47630.56;;;-141.97;58.07
7018;BME280;3549;42.162;24.726;2023-06-05T06:09:39;47765.09;;;-141.97;59.16
7018;BME280;3549;42.162;24.726;2023-06-05T06:12:06;47490.25;;;-141.97;59.01
7018;BME280;3549;42.162;24.726;2023-06-05T06:14:33;47661.31;;;-141.97;58.91
7018;BME280;3549;42.162;24.726;2023-06-05T06:16:59;47809.31;;;-141.97;58.32
7018;BME280;3549;42.162;24.726;2023-06-05T06:19:25;47584.44;;;-141.97;58.10
7018;BME280;3549;42.162;24.726;2023-06-05T06:21:53;47522.91;;;-141.97;58.91
7018;BME280;3549;42.162;24.726;2023-06-05T06:24:18;47651.69;;;-141.97;59.43
7018;BME280;3549;42.162;24.726;2023-06-05T06:26:48;47622.88;;;-141.97;60.78
7018;BME280;3549;42.162;24.726;2023-06-05T06:29:20;47799.72;;;-141.97;62.08
7018;BME280;3549;42.162;24.726;2023-06-05T06:31:46;47653.63;;;-141.97;62.21
7018;BME280;3549;42.162;24.726;2023-06-05T06:34:12;47634.41;;;-141.97;60.46
7018;BME280;3549;42.162;24.726;2023-06-05T06:36:37;47603.66;;;-141.97;59.48
7018;BME280;3549;42.162;24.726;2023-06-05T06:39:06;47617.09;;;-141.97;60.39
7018;BME280;3549;42.162;24.726;2023-06-05T06:41:35;47584.44;;;-141.97;59.95
7018;BME280;3549;42.162;24.726;2023-06-05T06:44:02;47592.13;;;-141.97;59.58
7018;BME280;3549;42.162;24.726;2023-06-05T06:46:27;47599.81;;;-141.97;58.56
7018;BME280;3549;42.162;24.726;2023-06-05T06:48:53;47624.78;;;-141.97;57.04
7018;BME280;3549;42.162;24.726;2023-06-05T06:51:18;47497.94;;;-141.97;57.95
7018;BME280;3549;42.162;24.726;2023-06-05T06:53:44;47611.34;;;-141.97;59.86
7018;BME280;3549;42.162;24.726;2023-06-05T06:56:09;47747.81;;;-141.97;60.01
7018;BME280;3549;42.162;24.726;2023-06-05T06:58:36;47792.03;;;-141.97;58.36
7018;BME280;3549;42.162;24.726;2023-06-05T07:01:02;47753.56;;;-141.97;59.27
7018;BME280;3549;42.162;24.726;2023-06-05T07:03:28;47574.81;;;-141.97;60.68
7018;BME280;3549;42.162;24.726;2023-06-05T07:05:54;47582.50;;;-141.97;60.37
7018;BME280;3549;42.162;24.726;2023-06-05T07:08:19;47772.78;;;-141.97;60.27
7018;BME280;3549;42.162;24.726;2023-06-05T07:10:45;47628.63;;;-141.97;59.88
7018;BME280;3549;42.162;24.726;2023-06-05T07:13:10;47695.91;;;-141.97;59.77
7018;BME280;3549;42.162;24.726;2023-06-05T07:15:36;47586.34;;;-141.97;58.91
7018;BME280;3549;42.162;24.726;2023-06-05T07:18:01;47559.44;;;-141.97;59.21
7018;BME280;3549;42.162;24.726;2023-06-05T07:20:26;47726.66;;;-141.97;59.53
7018;BME280;3549;42.162;24.726;2023-06-05T07:22:52;47592.13;;;-141.97;58.44
7018;BME280;3549;42.162;24.726;2023-06-05T07:25:17;47572.91;;;-141.97;58.54
7018;BME280;3549;42.162;24.726;2023-06-05T07:27:46;47565.22;;;-141.97;57.76
7018;BME280;3549;42.162;24.726;2023-06-05T07:30:11;47569.06;;;-141.97;57.12
7018;BME280;3549;42.162;24.726;2023-06-05T07:32:38;47567.13;;;-141.97;57.00
7018;BME280;3549;42.162;24.726;2023-06-05T07:35:03;47572.91;;;-141.97;56.82
7018;BME280;3549;42.162;24.726;2023-06-05T07:37:29;47419.13;;;-141.97;56.09
7018;BME280;3549;42.162;24.726;2023-06-05T07:39:54;47588.28;;;-141.97;55.18
7018;BME280;3549;42.162;24.726;2023-06-05T07:42:20;47574.81;;;-141.97;55.44
7018;BME280;3549;42.162;24.726;2023-06-05T07:44:45;47586.34;;;-141.97;55.90
7018;BME280;3549;42.162;24.726;2023-06-05T07:47:11;47574.81;;;-141.97;55.85
7018;BME280;3549;42.162;24.726;2023-06-05T07:49:36;47503.69;;;-141.97;57.14
7018;BME280;3549;42.162;24.726;2023-06-05T07:52:02;47595.97;;;-141.97;56.83
7018;BME280;3549;42.162;24.726;2023-06-05T07:54:27;47496.00;;;-141.97;56.56
7018;BME280;3549;42.162;24.726;2023-06-05T07:56:52;47530.59;;;-141.97;55.71
7018;BME280;3549;42.162;24.726;2023-06-05T07:59:19;47563.28;;;-141.97;55.16
7018;BME280;3549;42.162;24.726;2023-06-05T08:01:49;47461.41;;;-141.97;56.49
7018;BME280;3549;42.162;24.726;2023-06-05T08:04:14;47574.81;;;-141.97;55.15
7018;BME280;3549;42.162;24.726;2023-06-05T08:06:40;47524.84;;;-141.97;54.51
7018;BME280;3549;42.162;24.726;2023-06-05T08:09:07;47515.22;;;-141.97;54.09
7018;BME280;3549;42.162;24.726;2023-06-05T08:11:35;47751.66;;;-141.97;55.25
7018;BME280;3549;42.162;24.726;2023-06-05T08:14:02;47584.44;;;-141.97;54.46
7018;BME280;3549;42.162;24.726;2023-06-05T08:16:29;47484.47;;;-141.97;54.34
7018;BME280;3549;42.162;24.726;2023-06-05T08:18:54;47511.38;;;-141.97;54.08
7018;BME280;3549;42.162;24.726;2023-06-05T08:21:20;47565.22;;;-141.97;53.68
7018;BME280;3549;42.162;24.726;2023-06-05T08:23:45;47770.88;;;-141.97;53.59
7018;BME280;3549;42.162;24.726;2023-06-05T08:26:11;47768.94;;;-141.97;53.05
7018;BME280;3549;42.162;24.726;2023-06-05T08:28:40;47549.84;;;-141.97;52.91
7018;BME280;3549;42.162;24.726;2023-06-05T08:31:07;47542.16;;;-141.97;52.92
7018;BME280;3549;42.162;24.726;2023-06-05T08:33:36;47680.53;;;-141.97;53.15
7018;BME280;3549;42.162;24.726;2023-06-05T08:36:02;47472.94;;;-141.97;53.55
7018;BME280;3549;42.162;24.726;2023-06-05T08:38:29;47488.31;;;-141.97;54.06
7018;BME280;3549;42.162;24.726;2023-06-05T08:41:02;47463.34;;;-141.97;53.88
7018;BME280;3549;42.162;24.726;2023-06-05T08:43:31;47472.94;;;-141.97;53.11
7018;BME280;3549;42.162;24.726;2023-06-05T08:45:57;47544.06;;;-141.97;52.94
7018;BME280;3549;42.162;24.726;2023-06-05T08:48:24;47542.16;;;-141.97;53.26
7018;BME280;3549;42.162;24.726;2023-06-05T08:50:50;47490.25;;;-141.97;52.78
7018;BME280;3549;42.162;24.726;2023-06-05T08:53:17;47582.50;;;-141.97;51.94
7018;BME280;3549;42.162;24.726;2023-06-05T08:55:47;47503.69;;;-141.97;50.75
7018;BME280;3549;42.162;24.726;2023-06-05T08:58:13;47515.22;;;-141.97;49.67
7018;BME280;3549;42.162;24.726;2023-06-05T09:00:39;47745.88;;;-141.97;50.06
7018;BME280;3549;42.162;24.726;2023-06-05T09:03:05;47526.75;;;-141.97;49.84
7018;BME280;3549;42.162;24.726;2023-06-05T09:05:31;47534.44;;;-141.97;49.57
7018;BME280;3549;42.162;24.726;2023-06-05T09:07:58;47555.59;;;-141.97;48.84
7018;BME280;3549;42.162;24.726;2023-06-05T09:10:28;47536.38;;;-141.97;49.12
7018;BME280;3549;42.162;24.726;2023-06-05T09:13:02;47490.25;;;-141.97;49.39
7018;BME280;3549;42.162;24.726;2023-06-05T09:15:30;47546.00;;;-141.97;48.67
7018;BME280;3549;42.162;24.726;2023-06-05T09:18:07;47549.84;;;-141.97;49.20
7018;BME280;3549;42.162;24.726;2023-06-05T09:20:40;47522.91;;;-141.97;49.02
7018;BME280;3549;42.162;24.726;2023-06-05T09:25:52;47476.78;;;-141.97;49.04
7018;BME280;3549;42.162;24.726;2023-06-05T09:28:18;47542.16;;;-141.97;48.59
7018;BME280;3549;42.162;24.726;2023-06-05T09:30:59;47507.53;;;-141.97;48.69
7018;BME280;3549;42.162;24.726;2023-06-05T09:33:26;47526.75;;;-141.97;48.21
7018;BME280;3549;42.162;24.726;2023-06-05T09:38:31;47505.63;;;-141.97;47.77
7018;BME280;3549;42.162;24.726;2023-06-05T09:43:35;47540.22;;;-141.97;47.27
7018;BME280;3549;42.162;24.726;2023-06-05T09:48:33;47663.22;;;-141.97;46.54
7018;BME280;3549;42.162;24.726;2023-06-05T09:53:41;47538.28;;;-141.97;48.00
7018;BME280;3549;42.162;24.726;2023-06-05T09:56:11;47513.31;;;-141.97;47.05
7018;BME280;3549;42.162;24.726;2023-06-05T09:58:37;47515.22;;;-141.97;46.39
7018;BME280;3549;42.162;24.726;2023-06-05T10:01:05;47497.94;;;-141.97;47.14
7018;BME280;3549;42.162;24.726;2023-06-05T10:03:34;47492.16;;;-141.97;46.85
7018;BME280;3549;42.162;24.726;2023-06-05T10:06:04;47530.59;;;-141.97;46.53
7018;BME280;3549;42.162;24.726;2023-06-05T10:08:31;47488.31;;;-141.97;46.73
7018;BME280;3549;42.162;24.726;2023-06-05T10:10:57;47342.25;;;-141.97;45.60
7018;BME280;3549;42.162;24.726;2023-06-05T10:13:23;47488.31;;;-141.97;45.28
7018;BME280;3549;42.162;24.726;2023-06-05T10:15:51;47499.84;;;-141.97;45.31
7018;BME280;3549;42.162;24.726;2023-06-05T10:18:17;47476.78;;;-141.97;44.48
7018;BME280;3549;42.162;24.726;2023-06-05T10:20:43;47376.84;;;-141.97;44.57
7018;BME280;3549;42.162;24.726;2023-06-05T10:23:15;47346.09;;;-141.97;44.30
7018;BME280;3549;42.162;24.726;2023-06-05T10:25:43;47446.03;;;-141.97;44.51
7018;BME280;3549;42.162;24.726;2023-06-05T10:39:05;47509.47;;;-141.97;46.01
7018;BME280;3549;42.162;24.726;2023-06-05T10:41:31;47442.19;;;-141.97;45.71
7018;BME280;3549;42.162;24.726;2023-06-05T10:43:57;47515.22;;;-141.97;45.24
7018;BME280;3549;42.162;24.726;2023-06-05T10:46:37;47530.59;;;-141.97;44.31
7018;BME280;3549;42.162;24.726;2023-06-05T10:49:14;47496.00;;;-141.97;44.39
7018;BME280;3549;42.162;24.726;2023-06-05T10:54:53;47436.44;;;-141.97;44.41
7018;BME280;3549;42.162;24.726;2023-06-05T10:57:04;47488.31;;;-141.97;44.51
7018;BME280;3549;42.162;24.726;2023-06-05T10:59:38;47515.22;;;-141.97;43.84
7018;BME280;3549;42.162;24.726;2023-06-05T11:07:19;47513.31;;;-141.97;44.49
7018;BME280;3549;42.162;24.726;2023-06-05T11:10:10;47524.84;;;-141.97;44.86
7018;BME280;3549;42.162;24.726;2023-06-05T11:15:07;47342.25;;;-141.97;44.95
7018;BME280;3549;42.162;24.726;2023-06-05T11:20:00;47521.00;;;-141.97;43.73
7018;BME280;3549;42.162;24.726;2023-06-05T11:22:30;47349.94;;;-141.97;43.38
7018;BME280;3549;42.162;24.726;2023-06-05T11:27:46;47661.31;;;-141.97;42.35
7018;BME280;3549;42.162;24.726;2023-06-05T11:30:13;47499.84;;;-141.97;42.86
7018;BME280;3549;42.162;24.726;2023-06-05T11:32:39;47421.06;;;-141.97;42.75
7018;BME280;3549;42.162;24.726;2023-06-05T11:35:05;47707.44;;;-141.97;41.21
7018;BME280;3549;42.162;24.726;2023-06-05T11:37:31;47478.72;;;-141.97;40.48
7018;BME280;3549;42.162;24.726;2023-06-05T11:40:02;47365.31;;;-141.97;40.38
7018;BME280;3549;42.162;24.726;2023-06-05T11:42:37;47449.88;;;-141.97;39.70
7018;BME280;3549;42.162;24.726;2023-06-05T11:45:12;47463.34;;;-141.97;38.35
7018;BME280;3549;42.162;24.726;2023-06-05T11:47:38;47378.78;;;-141.97;37.57
7018;BME280;3549;42.162;24.726;2023-06-05T11:50:11;47388.38;;;-141.97;36.66
7018;BME280;3549;42.162;24.726;2023-06-05T11:52:38;47217.34;;;-141.97;35.84
7018;BME280;3549;42.162;24.726;2023-06-05T11:57:44;47382.63;;;-141.97;34.61
7018;BME280;3549;42.162;24.726;2023-06-05T12:00:10;47407.59;;;-141.97;34.22
7018;BME280;3549;42.162;24.726;2023-06-05T12:02:37;47386.47;;;-141.97;33.58
7018;BME280;3549;42.162;24.726;2023-06-05T12:05:05;47294.22;;;-141.97;32.84
7018;BME280;3549;42.162;24.726;2023-06-05T12:07:32;47261.53;;;-141.97;33.43
7018;BME280;3549;42.162;24.726;2023-06-05T12:10:05;47365.31;;;-141.97;33.75
7018;BME280;3549;42.162;24.726;2023-06-05T12:12:31;47665.16;;;-141.97;33.14
7018;BME280;3549;42.162;24.726;2023-06-05T12:15:16;47311.50;;;-141.97;32.41
7018;BME280;3549;42.162;24.726;2023-06-05T12:17:51;47290.38;;;-141.97;31.80
7018;BME280;3549;42.162;24.726;2023-06-05T12:20:18;47353.78;;;-141.97;32.48
7018;BME280;3549;42.162;24.726;2023-06-05T12:22:43;47365.31;;;-141.97;31.62
7018;BME280;3549;42.162;24.726;2023-06-05T12:25:19;47369.16;;;-141.97;31.45
7018;BME280;3549;42.162;24.726;2023-06-05T12:27:45;47255.78;;;-141.97;31.05
7018;BME280;3549;42.162;24.726;2023-06-05T12:30:12;47338.41;;;-141.97;31.66
7018;BME280;3549;42.162;24.726;2023-06-05T12:32:38;47157.75;;;-141.97;31.41
7018;BME280;3549;42.162;24.726;2023-06-05T12:35:23;47326.88;;;-141.97;30.71
7018;BME280;3549;42.162;24.726;2023-06-05T12:37:50;47236.56;;;-141.97;30.48
7018;BME280;3549;42.162;24.726;2023-06-05T12:40:17;47565.22;;;-141.97;31.18
7018;BME280;3549;42.162;24.726;2023-06-05T12:42:47;47330.72;;;-141.97;30.65
7018;BME280;3549;42.162;24.726;2023-06-05T12:45:13;47288.44;;;-141.97;31.29
7018;BME280;3549;42.162;24.726;2023-06-05T12:47:39;47326.88;;;-141.97;30.75
7018;BME280;3549;42.162;24.726;2023-06-05T12:50:07;47338.41;;;-141.97;30.34
7018;BME280;3549;42.162;24.726;2023-06-05T12:52:33;47342.25;;;-141.97;30.08
7018;BME280;3549;42.162;24.726;2023-06-05T12:54:59;47226.94;;;-141.97;29.49
7018;BME280;3549;42.162;24.726;2023-06-05T12:57:25;47186.59;;;-141.97;29.43
7018;BME280;3549;42.162;24.726;2023-06-05T12:59:53;47034.75;;;-141.97;30.49
7018;BME280;3549;42.162;24.726;2023-06-05T13:02:19;47336.50;;;-141.97;29.60
7018;BME280;3549;42.162;24.726;2023-06-05T13:04:45;47190.44;;;-141.97;29.30
7018;BME280;3549;42.162;24.726;2023-06-05T13:07:11;47211.56;;;-141.97;29.42
7018;BME280;3549;42.162;24.726;2023-06-05T13:09:37;47305.75;;;-141.97;28.74
7018;BME280;3549;42.162;24.726;2023-06-05T13:12:03;47301.91;;;-141.97;29.02
7018;BME280;3549;42.162;24.726;2023-06-05T13:14:32;47276.91;;;-141.97;28.57
7018;BME280;3549;42.162;24.726;2023-06-05T13:16:58;47357.63;;;-141.97;29.91
7018;BME280;3549;42.162;24.726;2023-06-05T13:19:23;47315.34;;;-141.97;29.30
7018;BME280;3549;42.162;24.726;2023-06-05T13:21:49;47225.03;;;-141.97;28.57
7018;BME280;3549;42.162;24.726;2023-06-05T13:24:15;47622.88;;;-141.97;28.29
7018;BME280;3549;42.162;24.726;2023-06-05T13:26:41;47553.69;;;-141.97;28.41
7018;BME280;3549;42.162;24.726;2023-06-05T13:29:08;47309.59;;;-141.97;29.05
7018;BME280;3549;42.162;24.726;2023-06-05T13:31:34;47280.75;;;-141.97;28.33
7018;BME280;3549;42.162;24.726;2023-06-05T13:33:59;47288.44;;;-141.97;28.05